Time;durP1;ratioP1;P1;durP2;ratioP2;P2;SDS_P1;SDS_P2;PMS_P1;PMS_P2;Temp;Humidity;BMP_temperature;BMP_pressure;BME280_temperature;BME280_humidity;BME280_pressure;Samples;Min_cycle;Max_cycle;Signal;HPM_P1;HPM_P2
2022/08/28 06:47:20;;;;;;;16.70;15.15;;;31.30;99.90;;;;;;6141586;23;21418;-92
2022/08/28 06:49:46;;;;;;;15.90;14.68;;;32.00;99.90;;;;;;6113394;23;20037;-89
2022/08/28 06:52:13;;;;;;;16.98;15.52;;;31.80;99.90;;;;;;6111175;23;20013;-89
2022/08/28 06:54:39;;;;;;;16.10;15.00;;;32.10;99.90;;;;;;6107019;23;20010;-87
2022/08/28 06:57:06;;;;;;;16.48;15.10;;;32.30;99.90;;;;;;6106921;23;20052;-88
2022/08/28 06:59:33;;;;;;;16.98;15.55;;;31.80;99.90;;;;;;6106973;23;20009;-87
2022/08/28 07:02:01;;;;;;;16.77;15.45;;;31.90;99.90;;;;;;6107220;23;20002;-88
2022/08/28 07:04:31;;;;;;;16.33;15.05;;;32.10;99.90;;;;;;6106759;23;20013;-89
2022/08/28 07:06:58;;;;;;;17.98;16.65;;;32.30;99.90;;;;;;6104214;23;20053;-90
2022/08/28 07:09:27;;;;;;;17.85;16.20;;;33.00;99.90;;;;;;6107596;23;20011;-92
2022/08/28 07:11:55;;;;;;;17.63;15.52;;;33.70;99.90;;;;;;6108155;23;20006;-93
2022/08/28 07:14:30;;;;;;;16.63;15.45;;;33.90;99.90;;;;;;6116162;23;20017;-93
2022/08/28 07:17:00;;;;;;;16.70;15.30;;;32.80;99.90;;;;;;6123134;23;20013;-94
2022/08/28 07:19:32;;;;;;;16.67;15.35;;;32.90;99.90;;;;;;6125189;23;20332;-94
2022/08/28 07:21:59;;;;;;;16.10;14.82;;;33.10;99.90;;;;;;6109875;23;20036;-92
2022/08/28 07:24:34;;;;;;;16.75;15.60;;;33.20;99.90;;;;;;6136624;23;20135;-95
2022/08/28 07:46:20;;;;;;;16.65;15.55;;;32.40;99.90;;;;;;6102415;23;20026;-91
2022/08/28 07:48:49;;;;;;;15.73;14.52;;;32.20;99.90;;;;;;6105662;23;20440;-90
2022/08/28 07:51:16;;;;;;;16.85;15.65;;;32.30;99.90;;;;;;6114861;23;20431;-93
2022/08/28 07:53:42;;;;;;;17.10;15.80;;;31.70;99.90;;;;;;6110502;23;20010;-95
2022/08/28 07:56:10;;;;;;;16.85;15.65;;;31.40;99.90;;;;;;6108302;23;20112;-96
2022/08/28 07:58:37;;;;;;;17.05;15.85;;;31.90;99.90;;;;;;6107725;23;20001;-93
2022/08/28 08:01:04;;;;;;;17.00;15.60;;;32.40;99.90;;;;;;6108254;23;20444;-94
2022/08/28 08:03:31;;;;;;;16.30;15.18;;;32.80;99.90;;;;;;6107147;23;20010;-96
2022/08/28 08:06:03;;;;;;;16.25;14.82;;;32.70;99.90;;;;;;6107048;23;20041;-94
2022/08/28 08:08:32;;;;;;;16.30;15.20;;;32.60;99.90;;;;;;6108563;23;20077;-94
2022/08/28 08:11:06;;;;;;;16.55;15.32;;;32.20;99.90;;;;;;6108653;23;20006;-95
2022/08/28 08:13:34;;;;;;;16.50;15.23;;;31.80;99.90;;;;;;6107304;23;20017;-94
2022/08/28 08:16:01;;;;;;;16.85;15.75;;;32.00;99.90;;;;;;6107541;23;20017;-96
2022/08/28 08:18:36;;;;;;;16.52;15.38;;;32.40;99.90;;;;;;6107567;23;20056;-93
2022/08/28 08:21:13;;;;;;;17.42;16.00;;;32.90;99.90;;;;;;6108118;23;20022;-92
2022/08/28 08:23:40;;;;;;;16.02;14.93;;;33.10;99.90;;;;;;6109478;23;20470;-94
2022/08/28 08:26:20;;;;;;;14.77;13.77;;;32.50;99.90;;;;;;6108873;23;20025;-93
2022/08/28 08:28:55;;;;;;;15.30;14.18;;;31.90;99.90;;;;;;6109260;23;20059;-94
2022/08/28 08:31:34;;;;;;;15.80;14.50;;;31.90;99.90;;;;;;6109354;23;20088;-94
2022/08/28 08:34:05;;;;;;;15.73;14.50;;;32.00;99.90;;;;;;6109269;23;20016;-94
2022/08/28 08:36:37;;;;;;;16.73;15.43;;;32.50;99.90;;;;;;6110438;23;20013;-95
2022/08/28 08:39:07;;;;;;;16.67;15.40;;;32.60;99.90;;;;;;6109961;23;20044;-95
2022/08/28 09:19:29;;;;;;;15.90;14.60;;;32.50;99.90;;;;;;6148114;23;20024;-92
2022/08/28 09:25:13;;;;;;;16.48;15.07;;;32.90;99.90;;;;;;5986282;24;20020;-93
2022/08/28 09:31:40;;;;;;;15.18;13.77;;;32.70;99.90;;;;;;6070446;23;20466;-91
2022/08/28 09:34:34;;;;;;;14.98;13.60;;;32.30;99.90;;;;;;6112959;23;20013;-92
2022/08/28 09:37:30;;;;;;;14.75;13.63;;;32.30;99.90;;;;;;6121910;23;20005;-92
2022/08/28 09:40:28;;;;;;;14.55;13.55;;;31.60;99.90;;;;;;6109164;23;20490;-94
2022/08/28 09:43:27;;;;;;;14.90;13.65;;;31.40;99.90;;;;;;6130381;23;20017;-93
2022/08/28 09:46:19;;;;;;;16.50;15.20;;;31.50;99.90;;;;;;6108205;23;20040;-92
2022/08/28 09:51:54;;;;;;;15.98;14.70;;;31.80;99.90;;;;;;6205657;23;20005;-93
2022/08/28 09:54:42;;;;;;;15.88;14.40;;;31.20;99.90;;;;;;6040132;23;20011;-92
2022/08/28 09:57:12;;;;;;;16.27;14.77;;;30.90;99.90;;;;;;5999147;23;20011;-93
2022/08/28 10:00:07;;;;;;;16.23;14.82;;;30.70;99.90;;;;;;6018787;23;20422;-94
2022/08/28 10:02:59;;;;;;;15.90;14.35;;;30.70;99.90;;;;;;6016999;23;20074;-91
2022/08/28 10:05:59;;;;;;;15.75;14.20;;;30.80;99.90;;;;;;6016602;23;20026;-93
2022/08/28 10:09:05;;;;;;;16.20;14.80;;;30.50;99.90;;;;;;6016487;23;20012;-93
2022/08/28 10:11:48;;;;;;;15.32;14.02;;;30.60;99.90;;;;;;6016022;23;20063;-93
2022/08/28 10:14:24;;;;;;;15.77;14.25;;;30.80;99.90;;;;;;5992847;23;20038;-92
2022/08/28 10:17:10;;;;;;;14.82;13.73;;;31.30;99.90;;;;;;5992770;23;20035;-93
2022/08/28 10:19:40;;;;;;;15.48;14.30;;;31.90;99.90;;;;;;6016493;23;20015;-94
2022/08/28 10:22:33;;;;;;;14.52;13.38;;;32.10;99.90;;;;;;5993072;23;20010;-94
2022/08/28 10:25:55;;;;;;;14.32;13.23;;;32.30;99.90;;;;;;6016012;23;20015;-93
2022/08/28 10:28:42;;;;;;;14.77;13.48;;;32.50;99.90;;;;;;5910303;24;20024;-93
2022/08/28 10:31:53;;;;;;;14.27;12.95;;;32.70;99.90;;;;;;6016163;23;20556;-95
2022/08/28 10:34:39;;;;;;;14.43;13.23;;;32.60;99.90;;;;;;6045306;23;20014;-94
2022/08/28 10:37:29;;;;;;;14.63;13.48;;;32.20;99.90;;;;;;6092688;23;20011;-93
2022/08/28 10:40:10;;;;;;;14.32;13.38;;;32.10;99.90;;;;;;6044704;23;20007;-95
2022/08/28 10:42:50;;;;;;;13.93;12.77;;;31.70;99.90;;;;;;6044666;23;20059;-94
2022/08/28 10:45:24;;;;;;;13.73;12.63;;;31.80;99.90;;;;;;6044982;23;20019;-96
2022/08/28 10:48:27;;;;;;;14.23;12.90;;;31.90;99.90;;;;;;6045159;23;20022;-94
2022/08/28 10:51:05;;;;;;;14.32;13.13;;;32.30;99.90;;;;;;6044565;23;20033;-93
2022/08/28 10:53:48;;;;;;;13.40;12.50;;;31.70;99.90;;;;;;6110921;23;20162;-94
2022/08/28 10:56:26;;;;;;;13.98;12.23;;;31.70;99.90;;;;;;6073953;23;20037;-94
2022/08/28 10:58:58;;;;;;;14.60;13.40;;;31.60;99.90;;;;;;6102999;23;20435;-94
2022/08/28 11:01:35;;;;;;;14.75;11.85;;;31.40;99.90;;;;;;6085546;23;20009;-95
2022/08/28 11:04:14;;;;;;;13.77;12.73;;;31.60;99.90;;;;;;6109588;23;20010;-95
2022/08/28 11:06:57;;;;;;;14.60;13.25;;;31.50;99.90;;;;;;6133474;23;20056;-94
2022/08/28 11:09:34;;;;;;;14.07;13.07;;;31.70;99.90;;;;;;6132998;23;20005;-95
2022/08/28 11:12:05;;;;;;;14.38;13.15;;;31.50;99.90;;;;;;6107567;23;20014;-95
2022/08/28 11:15:29;;;;;;;;;;;;;;;;;;;;;
2022/08/28 11:18:19;;;;;;;14.63;13.27;;;30.90;99.90;;;;;;5994940;23;20012;-95
2022/08/28 11:21:42;;;;;;;15.25;13.80;;;30.90;99.90;;;;;;5976078;23;20019;-93
2022/08/28 11:24:58;;;;;;;;;;;;;;;;;;;;;
2022/08/28 11:27:35;;;;;;;15.85;13.48;;;31.30;99.90;;;;;;6013023;23;20034;-91
2022/08/28 11:30:10;;;;;;;13.93;12.98;;;30.40;99.90;;;;;;5986846;23;20016;-89
2022/08/28 11:32:39;;;;;;;14.57;13.48;;;29.50;99.90;;;;;;5963774;23;20022;-90
2022/08/28 11:35:28;;;;;;;14.70;13.70;;;28.40;99.90;;;;;;6010130;23;20148;-89
2022/08/28 11:40:51;;;;;;;13.43;12.52;;;27.40;99.90;;;;;;6174808;23;20005;-93
2022/08/28 11:51:32;;;;;;;14.50;13.30;;;26.80;99.90;;;;;;6178310;23;20044;-92
2022/08/28 11:54:25;;;;;;;13.93;12.88;;;26.90;99.90;;;;;;6078328;23;20024;-93
2022/08/28 12:01:19;;;;;;;14.63;13.65;;;27.80;99.90;;;;;;6038635;23;20015;-94
2022/08/28 12:10:24;;;;;;;15.20;14.07;;;29.20;99.90;;;;;;6147182;22;20056;-92
2022/08/28 12:13:38;;;;;;;14.73;13.60;;;29.90;99.90;;;;;;6138852;23;20009;-93
2022/08/28 12:17:04;;;;;;;15.27;14.18;;;30.70;99.90;;;;;;6119797;23;20078;-93
2022/08/28 12:19:52;;;;;;;15.38;14.23;;;30.90;99.90;;;;;;6041151;23;20033;-92
2022/08/28 12:22:51;;;;;;;;;;;;;;;;;;;;;
2022/08/28 12:30:52;;;;;;;15.05;14.05;;;31.30;99.90;;;;;;6160253;23;20036;-93
2022/08/28 12:33:39;;;;;;;14.95;13.75;;;30.90;99.90;;;;;;6110776;23;20152;-92
2022/08/28 12:41:34;;;;;;;15.98;14.80;;;30.80;99.90;;;;;;6189488;23;20032;-93
2022/08/28 12:46:54;;;;;;;16.58;15.27;;;30.90;99.90;;;;;;6040017;23;20048;-94
2022/08/28 12:49:37;;;;;;;16.20;15.10;;;31.00;99.90;;;;;;6040113;23;20011;-94
2022/08/28 12:52:19;;;;;;;16.33;14.63;;;31.20;99.90;;;;;;6040409;23;20065;-94
2022/08/28 12:54:47;;;;;;;16.45;15.23;;;31.20;99.90;;;;;;6039984;23;20007;-93
2022/08/28 12:57:24;;;;;;;16.75;15.48;;;30.90;99.90;;;;;;6040136;23;20007;-93
2022/08/28 12:59:55;;;;;;;16.25;14.85;;;31.30;99.90;;;;;;6039956;23;20143;-92
2022/08/28 13:02:32;;;;;;;16.88;15.52;;;31.50;99.90;;;;;;6016512;23;20017;-93
2022/08/28 13:05:08;;;;;;;15.85;14.82;;;31.50;99.90;;;;;;6040165;23;20012;-93
2022/08/28 13:07:47;;;;;;;15.55;14.63;;;31.30;99.90;;;;;;6040029;23;20446;-93
2022/08/28 13:10:19;;;;;;;16.40;15.07;;;31.10;99.90;;;;;;6047298;23;20019;-94
2022/08/28 13:13:02;;;;;;;16.55;15.38;;;31.30;99.90;;;;;;6040948;23;20011;-93
2022/08/28 13:16:01;;;;;;;16.30;15.00;;;31.20;99.90;;;;;;6016219;23;20011;-91
2022/08/28 13:18:39;;;;;;;16.17;14.98;;;31.00;99.90;;;;;;6040153;23;20011;-94
2022/08/28 13:21:13;;;;;;;15.38;14.38;;;30.90;99.90;;;;;;6016274;23;20015;-92
2022/08/28 13:23:40;;;;;;;;;;;30.90;99.90;;;;;;6073317;23;20005;-91
2022/08/28 13:26:07;;;;;;;16.27;14.80;;;31.00;99.90;;;;;;6107772;23;19913;-92
2022/08/28 13:28:41;;;;;;;16.35;15.05;;;31.00;99.90;;;;;;6132568;23;20049;-94
2022/08/28 13:31:29;;;;;;;16.20;15.00;;;31.20;99.90;;;;;;6108120;23;20013;-93
2022/08/28 13:34:08;;;;;;;15.88;14.77;;;31.30;99.90;;;;;;6132581;23;20006;-92
2022/08/28 13:37:00;;;;;;;16.90;15.50;;;31.50;99.90;;;;;;6131787;23;20033;-92
2022/08/28 13:39:30;;;;;;;16.45;15.18;;;31.40;99.90;;;;;;6124164;23;20044;-94
2022/08/28 13:42:07;;;;;;;17.52;16.15;;;31.60;99.90;;;;;;6132227;23;20015;-91
2022/08/28 13:44:43;;;;;;;16.45;15.13;;;32.20;99.90;;;;;;6108076;23;20005;-93
2022/08/28 13:47:10;;;;;;;16.33;15.07;;;32.50;99.90;;;;;;6132120;23;20439;-92
2022/08/28 13:49:37;;;;;;;17.02;15.77;;;32.60;99.90;;;;;;6107672;23;20440;-93
2022/08/28 13:52:05;;;;;;;17.20;15.82;;;32.80;99.90;;;;;;6107989;23;20005;-93
2022/08/28 13:54:33;;;;;;;16.50;15.40;;;32.80;99.90;;;;;;6107582;23;20010;-91
2022/08/28 13:57:00;;;;;;;16.75;15.40;;;32.50;99.90;;;;;;6107619;23;20005;-93
2022/08/28 13:59:31;;;;;;;17.08;15.77;;;32.30;99.90;;;;;;6132440;23;20009;-91
2022/08/28 14:04:46;;;;;;;16.90;15.70;;;32.60;99.90;;;;;;6156151;23;20060;-91
2022/08/28 14:07:14;;;;;;;17.13;15.70;;;33.00;99.90;;;;;;6107200;23;20028;-92
2022/08/28 14:09:41;;;;;;;17.17;15.85;;;33.30;99.90;;;;;;6107065;23;20006;-92
2022/08/28 14:12:09;;;;;;;17.40;15.98;;;33.30;99.90;;;;;;6136039;23;20010;-92
2022/08/28 14:14:38;;;;;;;16.60;15.50;;;33.50;99.90;;;;;;6119130;23;20001;-92
2022/08/28 14:17:06;;;;;;;17.27;15.77;;;33.60;99.90;;;;;;6140155;23;20060;-91
2022/08/28 14:19:32;;;;;;;16.77;15.57;;;33.70;99.90;;;;;;6136882;23;20009;-94
2022/08/28 14:21:59;;;;;;;16.35;15.18;;;33.70;99.90;;;;;;6108316;23;20013;-91
2022/08/28 14:24:26;;;;;;;16.48;15.25;;;33.80;99.90;;;;;;6108984;23;20321;-92
2022/08/28 14:26:53;;;;;;;18.00;16.20;;;33.60;99.90;;;;;;6107896;23;20060;-93
2022/08/28 14:29:20;;;;;;;16.25;14.73;;;32.40;99.90;;;;;;6131746;23;20006;-91
2022/08/28 14:31:48;;;;;;;15.57;14.30;;;31.20;99.90;;;;;;6155862;23;20014;-94
2022/08/28 14:34:18;;;;;;;15.38;14.10;;;30.10;99.90;;;;;;6107744;23;20009;-91
2022/08/28 14:36:53;;;;;;;14.70;13.18;;;29.50;99.90;;;;;;6107231;23;20092;-92
2022/08/28 14:39:24;;;;;;;15.82;13.57;;;29.30;99.90;;;;;;6131568;23;20017;-92
2022/08/28 14:41:52;;;;;;;14.52;13.15;;;29.50;99.90;;;;;;6131478;23;20013;-91
2022/08/28 14:44:21;;;;;;;15.43;13.82;;;29.20;99.90;;;;;;6107294;23;20404;-92
2022/08/28 14:46:49;;;;;;;18.90;14.07;;;28.90;99.90;;;;;;6131599;23;20405;-92
2022/08/28 14:49:16;;;;;;;16.98;13.77;;;28.90;99.90;;;;;;6131882;23;20006;-92
2022/08/28 14:51:44;;;;;;;15.68;14.05;;;28.80;99.90;;;;;;6131360;23;20006;-92
2022/08/28 14:54:14;;;;;;;18.00;13.27;;;29.00;99.90;;;;;;6131929;23;20012;-94
2022/08/28 14:56:42;;;;;;;17.10;13.30;;;29.10;99.90;;;;;;6133188;23;20009;-89
2022/08/28 14:59:15;;;;;;;13.80;12.57;;;29.20;99.90;;;;;;6110680;23;20005;-91
2022/08/28 15:01:47;;;;;;;15.63;13.52;;;29.30;99.90;;;;;;6132344;23;20041;-92
2022/08/28 15:04:21;;;;;;;14.45;13.27;;;29.50;99.90;;;;;;6133902;23;20021;-92
2022/08/28 15:06:57;;;;;;;14.90;13.43;;;29.70;99.90;;;;;;6134540;23;20020;-93
2022/08/28 15:09:29;;;;;;;14.73;13.43;;;29.80;99.90;;;;;;6157667;23;20039;-94
2022/08/28 15:11:56;;;;;;;15.43;13.20;;;30.00;99.90;;;;;;6126702;23;20006;-93
2022/08/28 15:14:26;;;;;;;15.10;14.00;;;30.20;99.90;;;;;;6132227;23;20006;-93
2022/08/28 15:16:57;;;;;;;15.75;14.10;;;30.30;99.90;;;;;;6108352;23;20084;-95
2022/08/28 15:19:27;;;;;;;17.13;14.02;;;30.40;99.90;;;;;;6112569;23;20060;-92
2022/08/28 15:21:57;;;;;;;14.80;13.68;;;30.50;99.90;;;;;;6160969;23;20012;-94
2022/08/28 15:24:45;;;;;;;;;;;;;;;;;;;;;
2022/08/28 15:27:12;;;;;;;15.40;14.20;;;30.70;99.90;;;;;;6161707;23;20017;-93
2022/08/28 15:29:49;;;;;;;15.52;13.95;;;30.50;99.90;;;;;;6161483;23;20013;-92
2022/08/28 15:32:16;;;;;;;15.85;13.80;;;30.10;99.90;;;;;;6186459;23;20036;-94
2022/08/28 15:34:43;;;;;;;15.30;13.98;;;30.00;99.90;;;;;;6161055;23;20090;-92
2022/08/28 15:37:10;;;;;;;15.10;13.80;;;30.00;99.90;;;;;;6161342;23;20001;-93
